createdAt,value
2018-07-11T11:03:01.555Z,101136.00
2018-07-11T11:05:35.998Z,101132.00
2018-07-11T11:08:09.493Z,101132.00
2018-07-11T11:10:41.480Z,101125.00
2018-07-11T11:13:10.131Z,101125.00
2018-07-11T11:15:40.132Z,101115.00
2018-07-11T11:18:11.479Z,101121.00
2018-07-11T11:20:46.928Z,101115.00
2018-07-11T11:23:20.421Z,101114.00
2018-07-11T11:25:52.700Z,101116.00
2018-07-11T11:28:22.945Z,101108.00
2018-07-11T11:30:53.761Z,101108.00
2018-07-11T11:33:24.562Z,101114.00
2018-07-11T11:35:56.727Z,101103.00
2018-07-11T11:38:28.314Z,101107.00
2018-07-11T11:41:00.564Z,101096.00
2018-07-11T11:43:38.231Z,101103.00
2018-07-11T11:46:10.366Z,101101.00
2018-07-11T11:48:44.938Z,101093.00
2018-07-11T11:51:15.243Z,101093.00
2018-07-11T11:53:45.721Z,101098.00
2018-07-11T11:56:18.236Z,101098.00
2018-07-11T11:58:56.483Z,101091.00
2018-07-11T12:01:32.065Z,101095.00
2018-07-11T12:04:02.862Z,101094.00
2018-07-11T12:06:33.452Z,101091.00
2018-07-11T12:09:12.947Z,101096.00
2018-07-11T12:11:45.838Z,101089.00
2018-07-11T12:14:17.699Z,101080.00
2018-07-11T12:16:59.358Z,101073.00
2018-07-11T12:19:36.007Z,101076.00
2018-07-11T12:22:11.409Z,101075.00
2018-07-11T12:24:46.419Z,101079.00
2018-07-11T12:27:25.075Z,101079.00
2018-07-11T12:30:06.580Z,101077.00
2018-07-11T12:32:36.856Z,101076.00
2018-07-11T12:35:12.049Z,101067.00
2018-07-11T12:37:47.008Z,101071.00
2018-07-11T12:40:20.285Z,101066.00
2018-07-11T12:42:55.778Z,101072.00
2018-07-11T12:45:26.993Z,101064.00
2018-07-11T12:49:04.519Z,101058.00
2018-07-11T12:51:37.583Z,101050.00
2018-07-11T12:54:16.224Z,101039.00
2018-07-11T12:56:44.826Z,101041.00
2018-07-11T12:59:13.694Z,101035.00
2018-07-11T13:01:42.630Z,101032.00
2018-07-11T13:04:14.430Z,101029.00
2018-07-11T13:06:45.545Z,101021.00
2018-07-11T13:09:17.718Z,101018.00
2018-07-11T13:11:53.464Z,101018.00
2018-07-11T13:14:26.015Z,101012.00
2018-07-11T13:17:04.185Z,101018.00
2018-07-11T13:19:33.608Z,101019.00
2018-07-11T13:22:28.223Z,101006.00
2018-07-11T19:17:09.438Z,101123.00
2018-07-11T19:19:49.323Z,101120.00
2018-07-11T19:23:30.968Z,101121.00
2018-07-11T19:26:21.574Z,101120.00
2018-07-11T19:29:05.344Z,101121.00
2018-07-11T19:31:45.638Z,101123.00
2018-07-11T19:34:56.433Z,101131.00
2018-07-11T19:37:41.833Z,101123.00
2018-07-11T19:41:21.369Z,101121.00
2018-07-11T19:46:05.296Z,101125.00
2018-07-11T19:50:52.971Z,101124.00
2018-07-11T19:53:34.059Z,101122.00
2018-07-11T19:56:11.801Z,101122.00
2018-07-11T19:58:46.706Z,101121.00
2018-07-11T20:04:47.666Z,101125.00
2018-07-11T20:07:16.255Z,101119.00
2018-07-11T20:09:46.126Z,101125.00
2018-07-11T20:12:16.127Z,101127.00
2018-07-11T20:14:45.482Z,101128.00
2018-07-11T20:17:14.559Z,101130.00
2018-07-11T20:19:44.040Z,101133.00
2018-07-11T20:22:12.807Z,101136.00
2018-07-11T20:24:41.883Z,101134.00
2018-07-11T20:27:11.399Z,101134.00
2018-07-11T20:29:41.347Z,101129.00
2018-07-11T20:32:10.852Z,101127.00
2018-07-11T20:34:40.546Z,101122.00
2018-07-11T20:37:09.822Z,101129.00
2018-07-11T20:39:38.898Z,101118.00
2018-07-11T20:42:08.310Z,101127.00
2018-07-11T20:44:37.750Z,101128.00
2018-07-11T20:47:08.342Z,101129.00
2018-07-11T20:49:37.970Z,101133.00
2018-07-11T20:52:07.210Z,101138.00
2018-07-11T20:54:36.316Z,101140.00
2018-07-11T20:57:05.576Z,101142.00
2018-07-11T20:59:45.400Z,101139.00
2018-07-11T21:02:25.362Z,101138.00
2018-07-11T21:05:33.640Z,101140.00
2018-07-11T21:08:09.699Z,101141.00
2018-07-11T21:12:52.036Z,101148.00
2018-07-11T21:16:33.166Z,101143.00
2018-07-11T21:19:10.865Z,101145.00
2018-07-11T21:21:40.223Z,101147.00
2018-07-11T21:24:10.031Z,101146.00
2018-07-11T21:26:38.751Z,101144.00
2018-07-11T21:32:38.368Z,101149.00
2018-07-11T21:35:06.787Z,101147.00
2018-07-11T21:37:35.140Z,101148.00
2018-07-11T21:40:04.119Z,101146.00
2018-07-11T21:42:33.524Z,101145.00
2018-07-11T21:45:02.248Z,101144.00
2018-07-11T21:47:30.449Z,101149.00
2018-07-11T21:49:59.664Z,101149.00
2018-07-11T21:52:28.712Z,101145.00
2018-07-11T21:54:58.184Z,101148.00
2018-07-11T21:57:27.187Z,101144.00
2018-07-11T21:59:56.099Z,101144.00
2018-07-11T22:02:25.214Z,101144.00
2018-07-11T22:04:54.172Z,101149.00
2018-07-11T22:07:23.135Z,101148.00
2018-07-11T22:09:52.087Z,101150.00
2018-07-11T22:12:21.128Z,101155.00
2018-07-11T22:14:49.875Z,101153.00
2018-07-11T22:19:34.436Z,101151.00
2018-07-11T22:22:02.011Z,101143.00
2018-07-11T22:24:29.435Z,101140.00
2018-07-11T22:26:56.452Z,101144.00
2018-07-11T22:29:23.909Z,101146.00
2018-07-11T22:31:51.029Z,101147.00
2018-07-11T22:34:18.684Z,101148.00
2018-07-11T22:36:46.409Z,101150.00
2018-07-11T22:39:13.830Z,101153.00
2018-07-11T22:41:41.439Z,101157.00
2018-07-11T22:44:09.977Z,101151.00
2018-07-11T22:46:38.731Z,101153.00
2018-07-11T22:49:08.140Z,101151.00
2018-07-11T22:51:37.039Z,101152.00
2018-07-11T22:54:05.636Z,101156.00
2018-07-11T22:56:34.853Z,101160.00
2018-07-11T22:59:03.135Z,101154.00
2018-07-11T23:01:31.119Z,101153.00
2018-07-11T23:04:00.530Z,101151.00
2018-07-11T23:06:30.284Z,101155.00
2018-07-11T23:08:57.943Z,101159.00
2018-07-11T23:11:27.203Z,101157.00
2018-07-11T23:13:55.840Z,101156.00
2018-07-11T23:16:24.613Z,101157.00
2018-07-11T23:18:53.133Z,101156.00
2018-07-11T23:21:21.439Z,101149.00
2018-07-11T23:23:51.436Z,101155.00
2018-07-11T23:26:21.290Z,101155.00
2018-07-11T23:28:49.658Z,101149.00
2018-07-11T23:31:18.053Z,101146.00
2018-07-11T23:33:46.637Z,101143.00
2018-07-11T23:36:15.355Z,101148.00
2018-07-11T23:38:44.388Z,101151.00
2018-07-11T23:41:12.004Z,101153.00
2018-07-11T23:43:39.628Z,101151.00
2018-07-11T23:46:07.203Z,101152.00
2018-07-11T23:48:35.803Z,101159.00
2018-07-11T23:51:02.914Z,101155.00
2018-07-11T23:53:30.537Z,101157.00
2018-07-11T23:56:01.021Z,101164.00
2018-07-11T23:58:30.279Z,101162.00
